Time;durP1;ratioP1;P1;durP2;ratioP2;P2;SDS_P1;SDS_P2;PMS_P1;PMS_P2;Temp;Humidity;BMP_temperature;BMP_pressure;BME280_temperature;BME280_humidity;BME280_pressure;Samples;Min_cycle;Max_cycle;Signal;HPM_P1;HPM_P2
2023/04/08 00:00:48;;;;;;;26.40;15.50;;;;;;;10.89;55.55;101175.19;5015242;28;20026;-83
2023/04/08 00:03:14;;;;;;;53.40;16.77;;;;;;;10.92;55.80;101166.88;5033355;28;20057;-83
2023/04/08 00:05:40;;;;;;;34.60;16.50;;;;;;;10.97;55.30;101177.31;5036544;28;20029;-83
2023/04/08 00:08:05;;;;;;;26.75;15.43;;;;;;;10.85;55.14;101151.31;5036285;28;20038;-83
2023/04/08 00:10:31;;;;;;;28.70;15.43;;;;;;;10.90;54.85;101173.38;5020537;28;20111;-83
2023/04/08 00:12:56;;;;;;;27.85;15.00;;;;;;;10.71;54.10;101165.78;5021147;28;20022;-82
2023/04/08 00:15:22;;;;;;;29.17;16.40;;;;;;;10.81;54.47;101166.84;5023656;28;20029;-83
2023/04/08 00:17:47;;;;;;;32.00;16.52;;;;;;;10.81;54.49;101166.84;5016662;28;20029;-84
2023/04/08 00:20:13;;;;;;;34.28;18.00;;;;;;;10.74;55.16;101170.94;5015277;28;20034;-83
2023/04/08 00:22:38;;;;;;;38.13;17.80;;;;;;;10.65;56.10;101162.69;5017056;28;20033;-82
2023/04/08 00:25:08;;;;;;;40.78;18.88;;;;;;;10.61;56.64;101169.28;5019669;28;20052;-82
2023/04/08 00:27:34;;;;;;;34.83;21.15;;;;;;;10.49;57.67;101168.31;5020990;28;20053;-83
2023/04/08 00:30:00;;;;;;;36.13;23.42;;;;;;;10.37;58.80;101161.13;5026513;28;20042;-82
2023/04/08 00:32:27;;;;;;;39.47;24.52;;;;;;;10.49;59.33;101170.16;5017169;28;20065;-82
2023/04/08 00:34:52;;;;;;;44.45;29.60;;;;;;;10.52;60.03;101169.94;5020549;28;20049;-83
2023/04/08 00:37:18;;;;;;;57.15;33.28;;;;;;;10.51;60.75;101169.09;5030807;28;20030;-83
2023/04/08 00:39:43;;;;;;;60.40;34.25;;;;;;;10.54;62.27;101174.25;5024289;28;20030;-82
2023/04/08 00:42:09;;;;;;;54.55;34.08;;;;;;;10.49;63.05;101167.47;5012316;28;20030;-84
2023/04/08 00:44:34;;;;;;;71.30;35.05;;;;;;;10.53;62.89;101163.56;5012139;28;20108;-82
2023/04/08 00:47:00;;;;;;;61.92;36.53;;;;;;;10.50;63.66;101167.34;5012103;28;20057;-84
2023/04/08 00:49:26;;;;;;;57.40;34.40;;;;;;;10.48;64.39;101171.13;5011531;28;20022;-82
2023/04/08 00:51:53;;;;;;;55.85;34.28;;;;;;;10.49;64.30;101171.00;5011129;28;20038;-83
2023/04/08 00:54:18;;;;;;;51.17;30.15;;;;;;;10.48;64.18;101161.22;5011571;28;20049;-83
2023/04/08 00:56:44;;;;;;;51.35;30.88;;;;;;;10.61;63.59;101175.47;5011847;28;20057;-83
2023/04/08 00:59:10;;;;;;;44.53;29.77;;;;;;;10.57;63.35;101173.16;5010334;28;20481;-82
2023/04/08 01:01:44;;;;;;;51.30;29.80;;;;;;;10.53;63.35;101180.56;5010537;28;20034;-83
2023/04/08 01:04:32;;;;;;;47.00;28.95;;;;;;;10.45;63.69;101164.16;5011415;28;20470;-83
2023/04/08 01:07:18;;;;;;;48.83;30.17;;;;;;;10.48;63.62;101182.75;5011080;28;20030;-83
2023/04/08 01:09:48;;;;;;;51.17;31.40;;;;;;;10.44;63.82;101181.25;5011024;28;20034;-84
2023/04/08 01:12:20;;;;;;;51.83;29.98;;;;;;;10.37;63.57;101159.31;5010686;28;20505;-84
2023/04/08 01:14:47;;;;;;;88.07;32.85;;;;;;;10.49;64.19;101180.94;5011308;28;20026;-84
2023/04/08 01:17:16;;;;;;;62.72;30.95;;;;;;;10.34;64.03;101161.34;5011153;28;20556;-83
2023/04/08 01:19:43;;;;;;;71.47;31.35;;;;;;;10.47;64.08;101166.72;5011117;28;20033;-83
2023/04/08 01:22:18;;;;;;;48.63;27.75;;;;;;;10.41;63.62;101173.41;5011240;28;20033;-83
2023/04/08 01:24:46;;;;;;;53.15;29.70;;;;;;;10.24;64.03;101173.75;5011572;28;20053;-83
2023/04/08 01:27:13;;;;;;;56.00;30.83;;;;;;;10.26;64.83;101175.34;5012306;28;20512;-83
2023/04/08 01:29:39;;;;;;;44.95;29.80;;;;;;;10.20;65.17;101169.56;5011798;28;20036;-83
2023/04/08 01:32:07;;;;;;;48.45;30.13;;;;;;;10.26;64.66;101180.72;5013847;28;20125;-83
2023/04/08 01:34:34;;;;;;;51.63;28.63;;;;;;;10.33;64.15;101167.72;5046390;28;20061;-84
2023/04/08 01:37:01;;;;;;;43.55;22.33;;;;;;;10.34;63.12;101169.41;5032703;28;20041;-83
2023/04/08 01:39:29;;;;;;;31.15;18.73;;;;;;;10.35;59.88;101171.16;5011098;28;20050;-83
2023/04/08 01:41:57;;;;;;;26.60;16.70;;;;;;;10.23;57.93;101163.97;5010715;28;20033;-83
2023/04/08 01:44:25;;;;;;;25.65;15.32;;;;;;;10.32;57.07;101177.59;5010275;28;20026;-83
2023/04/08 01:46:52;;;;;;;33.97;16.85;;;;;;;10.35;57.15;101179.22;5010402;28;20033;-82
2023/04/08 01:49:19;;;;;;;34.53;16.63;;;;;;;10.33;57.71;101167.72;5010962;28;20783;-83
2023/04/08 01:51:47;;;;;;;37.10;18.73;;;;;;;10.33;58.04;101170.41;5008304;28;20080;-82
2023/04/08 01:54:12;;;;;;;35.65;19.10;;;;;;;10.42;58.36;101171.56;5010618;28;20482;-83
2023/04/08 01:56:41;;;;;;;38.05;20.40;;;;;;;10.34;58.74;101161.34;5025865;28;20037;-83
2023/04/08 01:59:10;;;;;;;53.35;18.20;;;;;;;10.48;58.54;101172.00;5010808;28;20026;-83
2023/04/08 02:01:36;;;;;;;43.40;18.80;;;;;;;10.46;57.50;101171.22;5010431;28;20502;-84
2023/04/08 02:04:03;;;;;;;52.28;19.48;;;;;;;10.46;57.98;101165.84;5025255;28;20444;-84
2023/04/08 02:06:30;;;;;;;28.88;17.02;;;;;;;10.42;57.71;101169.75;5009881;28;20030;-83
2023/04/08 02:08:55;;;;;;;47.97;18.85;;;;;;;10.35;57.85;101161.25;5010560;28;20395;-83
2023/04/08 02:11:21;;;;;;;41.72;17.30;;;;;;;10.39;57.61;101169.97;5009969;28;20030;-84
2023/04/08 02:13:47;;;;;;;39.45;16.33;;;;;;;10.40;57.65;101160.91;5011492;28;20022;-84
2023/04/08 02:16:30;;;;;;;43.83;17.13;;;;;;;10.31;57.42;101166.94;5011752;28;20432;-83
2023/04/08 02:19:14;;;;;;;26.48;15.77;;;;;;;10.28;57.79;101169.84;5010378;28;20109;-84
2023/04/08 02:21:56;;;;;;;29.67;16.05;;;;;;;10.25;57.03;101167.38;5010463;28;20029;-83
2023/04/08 02:24:22;;;;;;;38.03;16.40;;;;;;;10.24;56.90;101174.59;5011071;28;20085;-83
2023/04/08 02:26:50;;;;;;;47.97;16.58;;;;;;;10.25;56.65;101184.38;5011155;28;20139;-86
2023/04/08 02:29:17;;;;;;;42.10;16.98;;;;;;;10.26;57.51;101187.94;5011025;28;20026;-83
2023/04/08 02:31:44;;;;;;;113.78;21.73;;;;;;;10.25;57.42;101195.13;5025799;28;20164;-83
2023/04/08 02:34:11;;;;;;;72.18;19.00;;;;;;;10.29;57.38;101201.16;5029718;28;20128;-82
2023/04/08 02:36:39;;;;;;;53.78;19.92;;;;;;;10.32;57.33;101195.56;5018711;28;20018;-83
2023/04/08 02:39:05;;;;;;;86.60;20.38;;;;;;;10.27;57.49;101186.97;5012855;28;20033;-84
2023/04/08 02:41:31;;;;;;;53.80;20.20;;;;;;;10.21;57.21;101190.09;5010633;28;20022;-83
2023/04/08 02:43:57;;;;;;;29.00;16.55;;;;;;;10.17;57.79;101193.97;5009912;28;20030;-83
2023/04/08 02:46:22;;;;;;;52.70;20.65;;;;;;;10.12;57.85;101196.09;5010055;28;20408;-84
2023/04/08 02:48:48;;;;;;;30.20;19.13;;;;;;;10.03;58.57;101199.44;5010024;28;20088;-84
2023/04/08 02:51:13;;;;;;;48.05;23.90;;;;;;;9.89;58.95;101197.69;5009450;28;20057;-82
2023/04/08 02:53:39;;;;;;;54.08;26.00;;;;;;;9.84;60.32;101195.34;5010053;28;20025;-84
2023/04/08 02:56:05;;;;;;;47.05;26.77;;;;;;;9.91;60.28;101202.97;5010176;28;20620;-84
2023/04/08 02:58:30;;;;;;;55.67;24.70;;;;;;;9.86;60.64;101203.28;5011029;28;20047;-83
2023/04/08 03:00:56;;;;;;;60.85;24.98;;;;;;;9.90;60.31;101203.94;5036094;28;20032;-83
2023/04/08 03:03:28;;;;;;;45.55;24.48;;;;;;;9.82;60.26;101191.88;5010779;28;20030;-83
2023/04/08 03:05:56;;;;;;;37.63;24.15;;;;;;;9.76;59.92;101200.34;5010185;28;20109;-83
2023/04/08 03:08:22;;;;;;;46.90;22.45;;;;;;;9.66;59.54;101201.94;5009902;28;20041;-83
2023/04/08 03:10:48;;;;;;;54.92;23.13;;;;;;;9.69;59.61;101201.75;5025362;28;20029;-83
2023/04/08 03:13:14;;;;;;;40.08;22.98;;;;;;;9.66;59.25;101201.13;5009869;28;20037;-83
2023/04/08 03:15:40;;;;;;;44.38;24.88;;;;;;;9.63;59.07;101218.28;5009859;28;20032;-83
2023/04/08 03:18:06;;;;;;;49.53;23.95;;;;;;;9.42;59.49;101198.25;5010255;28;20378;-83
2023/04/08 03:20:31;;;;;;;49.70;26.13;;;;;;;9.35;59.98;101196.97;5010290;28;20030;-83
2023/04/08 03:22:57;;;;;;;56.53;26.00;;;;;;;9.35;59.94;101217.56;5010107;28;20109;-82
2023/04/08 03:25:22;;;;;;;50.75;24.95;;;;;;;9.29;59.95;101208.13;5010572;28;20026;-83
2023/04/08 03:27:48;;;;;;;38.45;23.55;;;;;;;9.17;60.01;101214.28;5010283;28;20032;-83
2023/04/08 03:30:13;;;;;;;44.58;24.40;;;;;;;9.12;60.30;101211.03;5028138;28;20053;-82
2023/04/08 03:32:39;;;;;;;66.57;34.90;;;;;;;9.00;60.28;101196.59;5027529;28;20060;-83
2023/04/08 03:35:05;;;;;;;81.13;37.00;;;;;;;9.10;60.59;101213.84;5015409;28;20091;-83
2023/04/08 03:37:30;;;;;;;74.07;34.85;;;;;;;9.00;60.95;101219.88;5013903;28;20038;-84
2023/04/08 03:39:56;;;;;;;76.97;36.05;;;;;;;8.92;60.97;101220.41;5014838;28;20030;-84
2023/04/08 03:42:22;;;;;;;89.78;43.05;;;;;;;8.81;61.75;101228.28;5012777;28;20022;-83
2023/04/08 03:44:47;;;;;;;93.22;39.70;;;;;;;8.84;62.22;101227.25;5012953;28;20037;-83
2023/04/08 03:47:13;;;;;;;75.97;34.53;;;;;;;8.84;61.81;101227.25;5012747;28;20406;-83
2023/04/08 03:49:38;;;;;;;74.10;32.90;;;;;;;8.81;62.14;101232.81;5012735;28;20021;-83
2023/04/08 03:52:04;;;;;;;58.85;27.05;;;;;;;8.84;62.17;101227.25;5013200;28;20026;-84
2023/04/08 03:54:29;;;;;;;71.97;26.45;;;;;;;8.78;62.19;101223.09;5013082;28;20224;-83
2023/04/08 03:56:55;;;;;;;76.72;29.27;;;;;;;8.77;62.62;101231.25;5013226;28;20030;-83
2023/04/08 03:59:20;;;;;;;54.50;26.65;;;;;;;8.87;62.74;101248.50;5012767;28;20045;-84
2023/04/08 04:01:46;;;;;;;57.50;24.10;;;;;;;8.95;63.10;101241.66;5012762;28;20048;-84
2023/04/08 04:04:12;;;;;;;45.03;25.42;;;;;;;8.91;63.00;101233.91;5013452;28;20029;-83
2023/04/08 04:06:37;;;;;;;58.50;25.65;;;;;;;9.03;63.19;101251.88;5013857;28;20029;-84
2023/04/08 04:09:02;;;;;;;57.05;22.73;;;;;;;8.98;63.11;101245.97;5013067;28;20029;-83
2023/04/08 04:11:28;;;;;;;55.28;23.00;;;;;;;9.06;63.04;101249.00;5016000;28;20113;-83
2023/04/08 04:13:53;;;;;;;46.30;22.00;;;;;;;9.16;62.53;101255.50;5019566;28;20018;-84
2023/04/08 04:16:19;;;;;;;60.35;25.15;;;;;;;9.21;62.80;101258.72;5017195;28;20390;-82
2023/04/08 04:18:44;;;;;;;74.28;22.13;;;;;;;9.29;62.62;101257.25;5018292;28;20520;-82
2023/04/08 04:21:10;;;;;;;55.75;22.58;;;;;;;9.35;62.69;101266.75;5016922;28;20462;-84
2023/04/08 04:23:35;;;;;;;52.00;24.63;;;;;;;9.41;62.79;101252.06;5014340;28;20507;-84
2023/04/08 04:26:01;;;;;;;109.28;28.48;;;;;;;9.54;62.44;101255.66;5013599;28;20115;-83
2023/04/08 04:28:26;;;;;;;59.88;27.60;;;;;;;9.60;62.77;101261.44;5029327;28;20112;-83
2023/04/08 04:30:52;;;;;;;71.28;29.10;;;;;;;9.69;62.73;101244.72;5029088;28;20038;-83
2023/04/08 04:33:17;;;;;;;81.65;37.58;;;;;;;9.89;63.33;101247.88;5016642;28;20046;-83
2023/04/08 04:35:43;;;;;;;113.57;40.35;;;;;;;10.02;63.48;101259.50;5013747;28;20109;-83
2023/04/08 04:38:11;;;;;;;82.25;34.70;;;;;;;10.09;63.99;101247.38;5013323;28;20080;-83
2023/04/08 04:40:40;;;;;;;77.07;31.45;;;;;;;10.18;64.04;101236.03;5012361;28;20037;-84
2023/04/08 04:43:05;;;;;;;68.57;29.17;;;;;;;10.45;64.28;101244.81;5013475;28;20050;-84
2023/04/08 04:45:31;;;;;;;46.90;25.23;;;;;;;10.55;65.07;101239.66;5014577;28;20033;-82
2023/04/08 04:47:56;;;;;;;33.85;20.58;;;;;;;10.59;66.29;101241.13;5013975;28;20088;-83
2023/04/08 04:50:22;;;;;;;38.47;18.92;;;;;;;10.65;66.66;101238.88;5016867;28;20041;-84
2023/04/08 04:52:47;;;;;;;52.08;21.02;;;;;;;10.71;66.55;101241.13;5030752;28;20022;-81
2023/04/08 04:55:14;;;;;;;56.35;20.95;;;;;;;10.73;66.99;101247.22;5035773;28;20030;-82
2023/04/08 04:57:40;;;;;;;42.63;19.80;;;;;;;10.80;67.11;101264.66;5032476;28;20065;-84
2023/04/08 05:00:07;;;;;;;32.42;18.65;;;;;;;10.82;66.26;101253.81;5029942;28;20034;-83
2023/04/08 05:02:33;;;;;;;57.63;20.52;;;;;;;10.84;66.71;101247.34;5018965;28;20026;-82
2023/04/08 05:04:58;;;;;;;39.50;18.90;;;;;;;10.93;66.69;101259.25;5017046;28;20022;-83
2023/04/08 05:07:24;;;;;;;35.60;19.02;;;;;;;11.02;67.10;101265.78;5013717;28;20029;-84
2023/04/08 05:09:49;;;;;;;56.00;20.08;;;;;;;11.13;66.16;101268.56;5012319;28;20030;-82
2023/04/08 05:12:15;;;;;;;32.67;17.40;;;;;;;11.26;66.47;101266.69;5011463;28;20052;-84
2023/04/08 05:14:41;;;;;;;55.80;18.88;;;;;;;11.24;66.47;101271.31;5011027;28;20014;-83
2023/04/08 05:17:06;;;;;;;50.67;19.33;;;;;;;11.11;66.98;101259.72;5011020;28;20450;-82
2023/04/08 05:19:32;;;;;;;56.10;21.50;;;;;;;11.07;67.30;101255.56;5011898;28;20026;-84
2023/04/08 05:21:57;;;;;;;72.85;20.55;;;;;;;11.23;67.61;101270.47;5017672;28;20038;-83
2023/04/08 05:24:22;;;;;;;45.33;18.52;;;;;;;11.20;67.65;101269.81;5013413;28;20057;-84
2023/04/08 05:26:51;;;;;;;33.83;18.73;;;;;;;11.22;67.87;101267.91;5028978;28;20029;-84
2023/04/08 05:29:17;;;;;;;89.72;23.95;;;;;;;11.10;67.74;101263.41;5028536;28;20053;-83
2023/04/08 05:31:43;;;;;;;34.85;17.30;;;;;;;11.13;68.64;101268.56;5012559;28;20054;-82
2023/04/08 05:34:10;;;;;;;46.92;19.25;;;;;;;10.96;69.98;101267.09;5011240;28;20029;-83
2023/04/08 05:36:36;;;;;;;29.85;17.00;;;;;;;11.04;70.34;101270.09;5010473;28;20030;-84
2023/04/08 05:39:01;;;;;;;36.42;19.02;;;;;;;11.02;70.27;101273.88;5010415;28;20053;-82
2023/04/08 05:41:27;;;;;;;33.97;16.95;;;;;;;11.09;70.83;101286.78;5010241;28;20382;-83
2023/04/08 05:43:53;;;;;;;49.42;18.52;;;;;;;11.29;69.92;101275.41;5010680;28;20046;-84
2023/04/08 05:46:19;;;;;;;33.92;17.08;;;;;;;11.18;69.47;101279.84;5010515;28;20033;-83
2023/04/08 05:48:44;;;;;;;38.25;17.45;;;;;;;11.31;69.84;101283.38;5011014;28;20468;-84
2023/04/08 05:51:13;;;;;;;30.65;17.27;;;;;;;11.36;69.59;101271.28;5010354;28;20025;-84
2023/04/08 05:53:39;;;;;;;38.00;16.77;;;;;;;11.31;69.42;101267.22;5010697;28;20409;-83
2023/04/08 05:56:04;;;;;;;36.63;17.25;;;;;;;11.18;69.98;101278.03;5011826;28;20032;-83
2023/04/08 05:58:30;;;;;;;63.25;19.52;;;;;;;11.23;69.59;101283.06;5009184;28;20053;-83
2023/04/08 06:00:55;;;;;;;30.80;16.25;;;;;;;11.14;69.67;101272.97;5010108;28;20354;-82
2023/04/08 06:03:21;;;;;;;32.55;15.90;;;;;;;11.25;69.61;101278.44;5011015;28;20037;-82
2023/04/08 06:05:46;;;;;;;27.15;16.38;;;;;;;11.51;68.99;101282.75;5010221;28;20041;-83
2023/04/08 06:08:11;;;;;;;27.65;14.73;;;;;;;11.38;67.34;101263.94;5011027;28;20026;-83
2023/04/08 06:10:37;;;;;;;31.33;14.68;;;;;;;11.59;66.64;101284.88;5010002;28;20032;-84
2023/04/08 06:13:02;;;;;;;28.92;14.27;;;;;;;11.61;65.56;101286.47;5010440;28;20030;-83
2023/04/08 06:15:28;;;;;;;31.90;14.60;;;;;;;11.57;66.00;101286.81;5009601;28;20037;-85
2023/04/08 06:17:53;;;;;;;29.40;13.13;;;;;;;11.69;65.56;101275.09;5010736;28;20152;-85
2023/04/08 06:20:19;;;;;;;29.83;13.02;;;;;;;11.31;65.43;101278.00;5014740;28;20026;-83
2023/04/08 06:22:44;;;;;;;32.78;13.45;;;;;;;11.43;65.54;101293.25;5018598;28;20401;-83
2023/04/08 06:25:10;;;;;;;46.97;15.05;;;;;;;11.26;65.38;101280.13;5025446;28;20022;-83
2023/04/08 06:27:35;;;;;;;32.15;13.65;;;;;;;11.51;65.04;101290.81;5026731;28;20026;-83
2023/04/08 06:30:01;;;;;;;34.38;16.77;;;;;;;11.62;64.64;101281.94;5011294;28;20121;-83
2023/04/08 06:32:26;;;;;;;35.92;15.65;;;;;;;11.61;65.29;101286.47;5009728;28;20046;-82
2023/04/08 06:34:51;;;;;;;25.02;14.07;;;;;;;11.61;65.84;101275.69;5009791;28;20142;-83
2023/04/08 06:37:17;;;;;;;26.25;14.85;;;;;;;11.55;66.26;101280.69;5010124;28;20109;-83
2023/04/08 06:39:43;;;;;;;35.00;16.80;;;;;;;11.62;67.22;101288.16;5009670;28;20395;-86
2023/04/08 06:42:08;;;;;;;36.47;14.82;;;;;;;11.70;67.04;101285.81;5009109;28;20554;-83
2023/04/08 06:44:34;;;;;;;23.73;15.45;;;;;;;11.72;66.30;101277.59;5009701;28;20485;-84
2023/04/08 06:46:59;;;;;;;37.33;14.52;;;;;;;11.84;65.69;101274.84;5009717;28;20418;-84
2023/04/08 06:49:26;;;;;;;33.05;14.32;;;;;;;11.68;67.28;101271.53;5009861;28;20060;-83
2023/04/08 06:51:51;;;;;;;28.30;14.73;;;;;;;11.43;66.53;101261.78;5009824;28;20416;-84
2023/04/08 06:54:17;;;;;;;32.13;14.88;;;;;;;11.35;68.14;101261.47;5009712;28;20117;-84
2023/04/08 06:56:42;;;;;;;56.03;16.02;;;;;;;11.55;67.11;101286.94;5014275;28;20030;-84
2023/04/08 06:59:08;;;;;;;56.53;18.60;;;;;;;11.74;67.43;101279.19;5026815;28;20041;-84
2023/04/08 07:01:33;;;;;;;27.45;14.88;;;;;;;11.78;65.61;101283.38;5025673;28;20191;-83
2023/04/08 07:04:01;;;;;;;38.40;16.55;;;;;;;11.89;65.68;101279.88;5025789;28;20030;-83
2023/04/08 07:06:26;;;;;;;34.15;16.10;;;;;;;12.02;65.53;101285.19;5011965;28;20018;-82
2023/04/08 07:08:52;;;;;;;41.97;14.05;;;;;;;11.92;65.29;101298.53;5010531;28;20592;-82
2023/04/08 07:11:17;;;;;;;25.23;15.00;;;;;;;11.87;66.17;101293.47;5013255;28;20057;-83
2023/04/08 07:13:43;;;;;;;23.20;14.30;;;;;;;11.69;66.71;101300.22;5013066;28;20030;-82
2023/04/08 07:16:08;;;;;;;42.30;15.88;;;;;;;11.63;67.28;101279.13;5013970;28;20472;-84
2023/04/08 07:18:34;;;;;;;47.00;17.23;;;;;;;11.63;67.73;101284.50;5014425;28;20036;-83
2023/04/08 07:20:59;;;;;;;31.77;14.75;;;;;;;11.71;67.37;101292.91;5022723;28;20130;-81
2023/04/08 07:23:26;;;;;;;33.75;15.18;;;;;;;11.83;67.40;101313.53;5031421;28;20030;-82
2023/04/08 07:25:52;;;;;;;33.38;15.95;;;;;;;12.02;66.56;101301.38;5029791;28;20026;-83
2023/04/08 07:28:19;;;;;;;28.73;13.45;;;;;;;12.10;65.70;101309.72;5015214;28;20030;-83
2023/04/08 07:30:44;;;;;;;50.30;15.43;;;;;;;11.99;67.18;101308.69;5012671;28;20066;-83
2023/04/08 07:33:10;;;;;;;22.33;13.10;;;;;;;11.85;67.41;101314.28;5013393;28;20050;-83
2023/04/08 07:35:35;;;;;;;24.60;13.15;;;;;;;11.64;68.38;101310.50;5012119;28;20022;-83
2023/04/08 07:38:01;;;;;;;33.25;15.90;;;;;;;11.77;69.08;101330.16;5013078;28;20033;-83
2023/04/08 07:40:26;;;;;;;39.72;14.80;;;;;;;11.79;70.13;101317.47;5014220;28;20022;-83
2023/04/08 07:42:52;;;;;;;35.17;14.90;;;;;;;11.73;69.96;101312.53;5016682;28;20033;-83
2023/04/08 07:45:17;;;;;;;45.92;15.93;;;;;;;11.71;70.88;101313.63;5017563;28;20085;-84
2023/04/08 07:47:43;;;;;;;40.38;15.65;;;;;;;11.88;70.91;101324.84;5014154;28;20579;-85
2023/04/08 07:50:09;;;;;;;37.35;14.18;;;;;;;11.83;71.33;101316.22;5019644;28;20037;-83
2023/04/08 07:52:34;;;;;;;27.48;15.20;;;;;;;11.66;71.26;101310.34;5016413;28;20084;-85
2023/04/08 07:55:00;;;;;;;21.70;15.07;;;;;;;11.67;72.36;101331.81;5014678;28;20030;-85
2023/04/08 07:57:26;;;;;;;21.45;14.52;;;;;;;11.57;72.65;101320.00;5014351;28;20485;-84
2023/04/08 07:59:51;;;;;;;32.00;16.55;;;;;;;11.60;73.38;101327.00;5013220;28;20124;-83
2023/04/08 08:02:17;;;;;;;41.95;16.17;;;;;;;11.56;72.61;101326.34;5013124;28;20028;-84
2023/04/08 08:04:42;;;;;;;28.98;13.07;;;;;;;11.45;72.14;101312.81;5011272;28;20118;-83
2023/04/08 08:07:08;;;;;;;47.33;15.52;;;;;;;11.63;73.09;101333.00;5012764;28;20109;-83
2023/04/08 08:09:34;;;;;;;26.38;14.45;;;;;;;11.87;71.29;101324.94;5012023;28;20042;-84
2023/04/08 08:11:59;;;;;;;38.45;16.15;;;;;;;11.81;70.97;101318.19;5012626;28;20468;-81
2023/04/08 08:14:25;;;;;;;31.83;15.55;;;;;;;11.87;70.31;101333.03;5013317;28;20464;-83
2023/04/08 08:16:52;;;;;;;29.08;12.55;;;;;;;11.92;67.77;101329.03;5013808;28;20018;-84
2023/04/08 08:19:19;;;;;;;52.00;17.40;;;;;;;11.96;69.08;101330.50;4995751;28;20072;-83
2023/04/08 08:21:44;;;;;;;33.20;15.02;;;;;;;12.14;69.86;101322.00;5029558;28;20056;-84
2023/04/08 08:24:10;;;;;;;31.48;15.52;;;;;;;12.21;69.49;101342.09;5032609;28;20022;-84
2023/04/08 08:26:35;;;;;;;24.95;13.23;;;;;;;12.18;68.68;101321.63;5014655;28;20036;-84
2023/04/08 08:29:01;;;;;;;36.15;13.55;;;;;;;11.96;68.76;101324.25;5012207;28;20033;-84
2023/04/08 08:31:27;;;;;;;52.80;16.85;;;;;;;12.18;70.01;101331.56;5012237;28;20338;-84
2023/04/08 08:33:52;;;;;;;23.60;13.35;;;;;;;12.19;67.83;101331.47;5011462;28;20022;-84
2023/04/08 08:36:17;;;;;;;33.15;13.75;;;;;;;12.16;68.98;101341.63;5011541;28;20666;-84
2023/04/08 08:38:43;;;;;;;41.13;13.23;;;;;;;12.24;68.05;101342.75;5011793;28;20029;-85
2023/04/08 08:41:09;;;;;;;37.58;14.95;;;;;;;12.35;66.89;101339.22;5012357;28;20619;-84
2023/04/08 08:43:34;;;;;;;49.78;13.65;;;;;;;12.13;67.05;101336.47;5011568;28;20030;-83
2023/04/08 08:46:00;;;;;;;37.67;15.68;;;;;;;12.33;68.31;101327.69;5011000;28;20065;-85
2023/04/08 08:48:26;;;;;;;21.15;13.32;;;;;;;12.26;67.63;101329.16;5011163;28;20045;-83
2023/04/08 08:50:51;;;;;;;25.02;12.48;;;;;;;12.46;67.00;101340.09;5011637;28;20041;-83
2023/04/08 08:53:18;;;;;;;24.83;13.65;;;;;;;12.65;67.14;101350.31;5012175;28;20053;-83
2023/04/08 08:55:44;;;;;;;28.75;12.15;;;;;;;12.72;66.78;101339.91;5013057;28;20052;-84
2023/04/08 08:58:09;;;;;;;17.23;12.05;;;;;;;12.81;66.71;101353.50;5012855;28;20030;-84
2023/04/08 09:00:43;;;;;;;18.80;12.40;;;;;;;12.84;66.77;101350.56;5014378;28;20583;-84
2023/04/08 09:03:19;;;;;;;20.83;13.20;;;;;;;12.58;67.27;101351.78;5017699;28;20425;-84
2023/04/08 09:05:49;;;;;;;19.77;12.75;;;;;;;12.36;67.66;101363.38;5012401;28;20091;-85
2023/04/08 09:08:35;;;;;;;30.65;13.82;;;;;;;12.22;69.29;101357.31;5012040;28;20034;-83
2023/04/08 09:11:17;;;;;;;34.70;15.07;;;;;;;12.49;68.98;101363.28;5013112;28;20113;-83
2023/04/08 09:13:44;;;;;;;51.40;15.57;;;;;;;12.65;67.98;101365.66;5014026;28;20030;-85
2023/04/08 09:16:11;;;;;;;31.63;15.73;;;;;;;12.89;68.13;101358.31;5014334;28;20275;-84
2023/04/08 09:18:38;;;;;;;32.90;14.00;;;;;;;12.96;67.68;101363.13;5021878;28;20056;-84
2023/04/08 09:21:05;;;;;;;42.47;14.95;;;;;;;13.14;66.77;101351.84;5029128;28;20022;-83
2023/04/08 09:23:37;;;;;;;27.25;12.40;;;;;;;13.14;66.46;101365.34;5025913;28;20068;-83
2023/04/08 09:26:11;;;;;;;29.80;14.13;;;;;;;13.13;66.62;101360.91;5014129;28;20137;-84
2023/04/08 09:28:38;;;;;;;32.47;12.80;;;;;;;13.39;65.79;101362.41;5012122;28;20062;-85
2023/04/08 09:31:22;;;;;;;20.15;11.75;;;;;;;13.31;65.71;101359.44;5012250;28;20033;-82
2023/04/08 09:33:49;;;;;;;22.58;12.23;;;;;;;13.25;65.04;101366.19;5013894;28;20046;-84
2023/04/08 09:36:16;;;;;;;24.90;11.00;;;;;;;13.15;64.87;101358.97;5014597;28;20049;-83
2023/04/08 09:38:42;;;;;;;22.02;11.40;;;;;;;12.98;65.86;101353.06;5017989;28;20022;-82
2023/04/08 09:41:07;;;;;;;37.30;12.63;;;;;;;12.86;66.86;101362.13;5023800;28;20502;-82
2023/04/08 09:43:41;;;;;;;46.83;14.02;;;;;;;13.01;66.71;101360.91;5030346;28;20028;-84
2023/04/08 09:46:10;;;;;;;30.23;12.35;;;;;;;13.13;66.73;101352.81;5029853;28;20057;-83
2023/04/08 09:48:43;;;;;;;26.33;13.07;;;;;;;13.20;66.34;101359.47;5034216;28;20018;-85
2023/04/08 09:51:14;;;;;;;30.58;13.23;;;;;;;13.13;66.76;101358.22;5017403;28;20061;-82
2023/04/08 09:53:46;;;;;;;36.47;13.53;;;;;;;13.34;66.25;101353.78;5013685;28;20477;-83
2023/04/08 09:56:13;;;;;;;36.80;11.75;;;;;;;13.37;66.07;101358.94;5012448;28;20026;-84
2023/04/08 09:58:45;;;;;;;47.22;14.15;;;;;;;13.28;66.40;101359.69;5011345;28;20103;-82
2023/04/08 10:01:13;;;;;;;21.85;11.40;;;;;;;13.29;66.35;101348.78;5012600;28;20100;-84
2023/04/08 10:03:47;;;;;;;44.78;27.80;;;;;;;13.50;66.19;101354.25;5012470;28;20043;-82
2023/04/08 10:06:14;;;;;;;20.70;11.38;;;;;;;13.30;66.94;101357.75;4997853;28;20062;-84
2023/04/08 10:08:41;;;;;;;36.65;11.38;;;;;;;13.53;66.35;101333.25;5014161;28;20061;-83
2023/04/08 10:11:06;;;;;;;18.65;10.10;;;;;;;13.68;65.40;101335.66;5010491;28;20033;-84
2023/04/08 10:13:33;;;;;;;32.17;11.43;;;;;;;13.36;65.97;101341.03;5012682;28;20036;-85
2023/04/08 10:16:21;;;;;;;20.73;11.40;;;;;;;13.29;66.21;101345.19;5012561;28;20088;-83
2023/04/08 10:18:49;;;;;;;26.13;11.15;;;;;;;13.06;66.49;101349.72;5040818;28;20620;-82
2023/04/08 10:21:37;;;;;;;26.92;11.40;;;;;;;12.95;66.48;101347.03;5027451;28;20029;-83
2023/04/08 10:24:09;;;;;;;20.35;11.77;;;;;;;12.91;66.52;101332.91;5018122;28;20558;-84
2023/04/08 10:26:36;;;;;;;22.10;11.90;;;;;;;13.18;66.70;101331.72;5010931;28;20421;-83
2023/04/08 10:29:16;;;;;;;28.77;11.52;;;;;;;13.29;67.08;101340.66;5009613;28;20034;-83
2023/04/08 10:31:42;;;;;;;20.75;10.93;;;;;;;13.28;66.79;101332.66;5009169;28;20096;-84
2023/04/08 10:34:18;;;;;;;32.35;10.60;;;;;;;12.96;67.79;101330.72;5009236;28;20030;-83
2023/04/08 10:36:44;;;;;;;13.68;9.27;;;;;;;12.92;67.51;101321.13;5009120;28;20030;-83
2023/04/08 10:39:12;;;;;;;14.00;9.20;;;;;;;12.78;67.42;101324.06;5024227;28;20038;-84
2023/04/08 10:41:42;;;;;;;33.15;12.80;;;;;;;12.96;68.38;101333.41;5008851;28;20030;-85
2023/04/08 10:44:17;;;;;;;23.17;12.00;;;;;;;13.25;66.41;101332.91;5014716;28;20030;-84
2023/04/08 10:46:46;;;;;;;19.65;9.68;;;;;;;13.30;65.64;101336.13;5015971;28;20065;-84
2023/04/08 10:49:13;;;;;;;29.83;12.05;;;;;;;13.46;66.21;101337.44;5015349;28;20083;-83
2023/04/08 10:51:39;;;;;;;25.83;10.57;;;;;;;13.32;66.54;101339.56;5015423;28;20058;-82
2023/04/08 10:54:08;;;;;;;15.75;9.70;;;;;;;13.19;66.27;101339.69;5015344;28;20489;-83
2023/04/08 10:56:51;;;;;;;17.17;9.10;;;;;;;13.18;65.39;101353.34;5015729;28;20119;-83
2023/04/08 10:59:25;;;;;;;;;;;;;;;13.19;65.84;101342.38;5016224;28;20021;-84
2023/04/08 11:01:51;;;;;;;13.55;9.25;;;;;;;13.31;64.99;101345.94;5015329;28;19918;-83
2023/04/08 11:04:22;;;;;;;15.77;10.32;;;;;;;13.19;65.82;101341.53;5015378;28;20604;-84
2023/04/08 11:06:48;;;;;;;14.63;10.07;;;;;;;12.79;66.05;101347.38;5016800;28;20030;-82
2023/04/08 11:09:15;;;;;;;34.47;12.10;;;;;;;12.70;68.11;101337.31;5015609;28;20549;-84
2023/04/08 11:11:42;;;;;;;51.15;10.95;;;;;;;12.59;67.14;101322.94;4997598;28;20037;-84